sensor_id;sensor_type;location;lat;lon;timestamp;pressure;altitude;pressure_sealevel;temperature;humidity
13068;BME280;6600;51.362;6.686;2024-01-15T00:02:16;99942.06;;;4.24;95.22
13068;BME280;6600;51.362;6.686;2024-01-15T00:04:42;99940.84;;;4.20;95.69
13068;BME280;6600;51.362;6.686;2024-01-15T00:07:08;99935.91;;;4.17;95.81
13068;BME280;6600;51.362;6.686;2024-01-15T00:09:34;99932.63;;;4.15;95.67
13068;BME280;6600;51.362;6.686;2024-01-15T00:12:00;99929.78;;;4.17;96.11
13068;BME280;6600;51.362;6.686;2024-01-15T00:14:26;99918.53;;;4.15;96.50
13068;BME280;6600;51.362;6.686;2024-01-15T00:16:51;99918.16;;;4.18;96.47
13068;BME280;6600;51.362;6.686;2024-01-15T00:19:17;99913.50;;;4.20;96.39
13068;BME280;6600;51.362;6.686;2024-01-15T00:21:43;99909.03;;;4.20;96.45
13068;BME280;6600;51.362;6.686;2024-01-15T00:24:08;99905.75;;;4.25;96.29
13068;BME280;6600;51.362;6.686;2024-01-15T00:26:33;99901.06;;;4.20;96.31
13068;BME280;6600;51.362;6.686;2024-01-15T00:28:59;99899.28;;;4.27;95.67
13068;BME280;6600;51.362;6.686;2024-01-15T00:31:24;99896.22;;;4.30;95.79
13068;BME280;6600;51.362;6.686;2024-01-15T00:33:50;99891.47;;;4.19;96.54
13068;BME280;6600;51.362;6.686;2024-01-15T00:36:15;99893.09;;;4.20;96.46
13068;BME280;6600;51.362;6.686;2024-01-15T00:38:41;99887.03;;;4.26;96.41
13068;BME280;6600;51.362;6.686;2024-01-15T00:41:07;99881.31;;;4.29;96.35
13068;BME280;6600;51.362;6.686;2024-01-15T00:43:33;99878.91;;;4.34;96.50
13068;BME280;6600;51.362;6.686;2024-01-15T00:46:01;99882.09;;;4.23;96.36
13068;BME280;6600;51.362;6.686;2024-01-15T00:48:26;99872.53;;;4.29;96.80
13068;BME280;6600;51.362;6.686;2024-01-15T00:50:51;99864.97;;;4.26;95.97
13068;BME280;6600;51.362;6.686;2024-01-15T00:53:17;99872.75;;;4.27;96.38
13068;BME280;6600;51.362;6.686;2024-01-15T00:55:42;99873.50;;;4.21;96.99
13068;BME280;6600;51.362;6.686;2024-01-15T00:58:07;99878.84;;;4.28;96.63
13068;BME280;6600;51.362;6.686;2024-01-15T01:00:32;99871.97;;;4.33;96.79
13068;BME280;6600;51.362;6.686;2024-01-15T01:02:58;99867.88;;;4.31;96.81
13068;BME280;6600;51.362;6.686;2024-01-15T01:05:23;99870.97;;;4.34;96.56
13068;BME280;6600;51.362;6.686;2024-01-15T01:07:48;99863.38;;;4.31;96.29
13068;BME280;6600;51.362;6.686;2024-01-15T01:10:14;99871.16;;;4.33;96.22
13068;BME280;6600;51.362;6.686;2024-01-15T01:12:39;99872.38;;;4.30;96.26
13068;BME280;6600;51.362;6.686;2024-01-15T01:15:05;99863.75;;;4.28;96.64
13068;BME280;6600;51.362;6.686;2024-01-15T01:17:30;99865.03;;;4.32;96.52
13068;BME280;6600;51.362;6.686;2024-01-15T01:19:55;99869.94;;;4.35;96.54
13068;BME280;6600;51.362;6.686;2024-01-15T01:22:21;99865.25;;;4.37;96.71
13068;BME280;6600;51.362;6.686;2024-01-15T01:24:46;99856.44;;;4.30;96.39
13068;BME280;6600;51.362;6.686;2024-01-15T01:27:11;99870.16;;;4.40;96.21
13068;BME280;6600;51.362;6.686;2024-01-15T01:29:37;99862.50;;;4.24;96.62
13068;BME280;6600;51.362;6.686;2024-01-15T01:32:02;99867.53;;;4.40;96.63
13068;BME280;6600;51.362;6.686;2024-01-15T01:34:27;99863.22;;;4.39;96.21
13068;BME280;6600;51.362;6.686;2024-01-15T01:36:53;99859.97;;;4.37;96.47
13068;BME280;6600;51.362;6.686;2024-01-15T01:39:18;99865.47;;;4.42;96.39
13068;BME280;6600;51.362;6.686;2024-01-15T01:41:43;99856.25;;;4.32;96.42
13068;BME280;6600;51.362;6.686;2024-01-15T01:44:08;99863.41;;;4.38;96.65
13068;BME280;6600;51.362;6.686;2024-01-15T01:46:35;99859.38;;;4.48;96.19
13068;BME280;6600;51.362;6.686;2024-01-15T01:49:04;99860.97;;;4.36;96.02
13068;BME280;6600;51.362;6.686;2024-01-15T01:51:31;99862.22;;;4.40;96.48
13068;BME280;6600;51.362;6.686;2024-01-15T01:53:58;99863.38;;;4.31;96.46
13068;BME280;6600;51.362;6.686;2024-01-15T01:56:24;99859.72;;;4.32;96.88
13068;BME280;6600;51.362;6.686;2024-01-15T01:58:49;99872.78;;;4.34;96.83
13068;BME280;6600;51.362;6.686;2024-01-15T02:01:15;99873.81;;;4.39;96.90
13068;BME280;6600;51.362;6.686;2024-01-15T02:03:40;99881.00;;;4.45;96.29
13068;BME280;6600;51.362;6.686;2024-01-15T02:06:06;99883.03;;;4.43;96.77
13068;BME280;6600;51.362;6.686;2024-01-15T02:08:31;99880.59;;;4.48;96.40
13068;BME280;6600;51.362;6.686;2024-01-15T02:10:57;99889.81;;;4.52;95.82
13068;BME280;6600;51.362;6.686;2024-01-15T02:13:23;99878.56;;;4.44;96.92
13068;BME280;6600;51.362;6.686;2024-01-15T02:15:48;99883.19;;;4.35;96.63
13068;BME280;6600;51.362;6.686;2024-01-15T02:18:13;99885.13;;;4.48;96.78
13068;BME280;6600;51.362;6.686;2024-01-15T02:20:39;99878.59;;;4.50;96.51
13068;BME280;6600;51.362;6.686;2024-01-15T02:23:11;99886.38;;;4.58;96.99
13068;BME280;6600;51.362;6.686;2024-01-15T02:25:41;99865.50;;;4.49;96.88
13068;BME280;6600;51.362;6.686;2024-01-15T02:28:11;99877.78;;;4.56;96.67
13068;BME280;6600;51.362;6.686;2024-01-15T02:30:38;99881.38;;;4.42;96.85
13068;BME280;6600;51.362;6.686;2024-01-15T02:33:05;99871.78;;;4.41;96.55
13068;BME280;6600;51.362;6.686;2024-01-15T02:35:30;99874.88;;;4.45;96.57
13068;BME280;6600;51.362;6.686;2024-01-15T02:37:55;99876.47;;;4.39;96.52
13068;BME280;6600;51.362;6.686;2024-01-15T02:40:21;99878.06;;;4.27;96.26
13068;BME280;6600;51.362;6.686;2024-01-15T02:42:46;99873.63;;;4.34;96.98
13068;BME280;6600;51.362;6.686;2024-01-15T02:45:11;99878.09;;;4.34;96.72
13068;BME280;6600;51.362;6.686;2024-01-15T02:47:37;99871.97;;;4.33;96.50
13068;BME280;6600;51.362;6.686;2024-01-15T02:50:02;99860.09;;;4.29;96.75
13068;BME280;6600;51.362;6.686;2024-01-15T02:52:28;99870.41;;;4.11;97.01
13068;BME280;6600;51.362;6.686;2024-01-15T02:54:53;99875.56;;;4.19;96.69
13068;BME280;6600;51.362;6.686;2024-01-15T02:57:18;99873.03;;;4.45;96.64
13068;BME280;6600;51.362;6.686;2024-01-15T02:59:43;99866.06;;;4.38;96.50
13068;BME280;6600;51.362;6.686;2024-01-15T03:02:09;99870.34;;;4.39;96.81
13068;BME280;6600;51.362;6.686;2024-01-15T03:04:34;99866.69;;;4.40;96.72
13068;BME280;6600;51.362;6.686;2024-01-15T03:06:59;99867.97;;;4.50;96.07
13068;BME280;6600;51.362;6.686;2024-01-15T03:09:25;99870.00;;;4.48;95.98
13068;BME280;6600;51.362;6.686;2024-01-15T03:11:50;99859.09;;;4.30;96.35
13068;BME280;6600;51.362;6.686;2024-01-15T03:14:15;99860.59;;;4.46;96.59
13068;BME280;6600;51.362;6.686;2024-01-15T03:16:41;99860.09;;;4.29;96.32
13068;BME280;6600;51.362;6.686;2024-01-15T03:19:06;99861.81;;;4.43;96.69
13068;BME280;6600;51.362;6.686;2024-01-15T03:21:32;99861.34;;;4.33;96.58
13068;BME280;6600;51.362;6.686;2024-01-15T03:23:57;99862.19;;;4.34;96.65
13068;BME280;6600;51.362;6.686;2024-01-15T03:26:22;99864.63;;;4.35;96.38
13068;BME280;6600;51.362;6.686;2024-01-15T03:28:48;99865.81;;;4.26;96.81
13068;BME280;6600;51.362;6.686;2024-01-15T03:31:13;99860.09;;;4.29;96.54
13068;BME280;6600;51.362;6.686;2024-01-15T03:33:38;99851.25;;;4.16;96.89
13068;BME280;6600;51.362;6.686;2024-01-15T03:36:04;99856.44;;;4.30;96.53
13068;BME280;6600;51.362;6.686;2024-01-15T03:38:29;99862.38;;;4.32;95.99
13068;BME280;6600;51.362;6.686;2024-01-15T03:40:54;99863.38;;;4.31;96.38
13068;BME280;6600;51.362;6.686;2024-01-15T03:43:20;99860.56;;;4.39;95.80
13068;BME280;6600;51.362;6.686;2024-01-15T03:45:45;99864.16;;;4.25;96.32
13068;BME280;6600;51.362;6.686;2024-01-15T03:48:11;99865.84;;;4.33;96.53
13068;BME280;6600;51.362;6.686;2024-01-15T03:50:36;99858.84;;;4.25;96.17
13068;BME280;6600;51.362;6.686;2024-01-15T03:53:01;99856.22;;;4.25;96.40
13068;BME280;6600;51.362;6.686;2024-01-15T03:55:27;99847.63;;;4.23;96.27
13068;BME280;6600;51.362;6.686;2024-01-15T03:57:52;99841.09;;;4.19;96.52
13068;BME280;6600;51.362;6.686;2024-01-15T04:00:17;99842.56;;;4.28;96.81
13068;BME280;6600;51.362;6.686;2024-01-15T04:02:43;99838.03;;;4.22;96.39
13068;BME280;6600;51.362;6.686;2024-01-15T04:05:09;99847.03;;;4.28;96.54
13068;BME280;6600;51.362;6.686;2024-01-15T04:07:34;99840.88;;;4.21;95.90
13068;BME280;6600;51.362;6.686;2024-01-15T04:10:00;99836.81;;;4.25;96.52
13068;BME280;6600;51.362;6.686;2024-01-15T04:12:25;99843.34;;;4.22;96.21
13068;BME280;6600;51.362;6.686;2024-01-15T04:14:50;99833.34;;;4.24;95.88
13068;BME280;6600;51.362;6.686;2024-01-15T04:17:16;99828.22;;;4.16;95.30
13068;BME280;6600;51.362;6.686;2024-01-15T04:19:43;99819.19;;;4.11;95.95
13068;BME280;6600;51.362;6.686;2024-01-15T04:22:09;99817.13;;;3.99;96.15
13068;BME280;6600;51.362;6.686;2024-01-15T04:24:34;99819.38;;;4.02;96.49
13068;BME280;6600;51.362;6.686;2024-01-15T04:26:59;99811.00;;;3.99;96.40
13068;BME280;6600;51.362;6.686;2024-01-15T04:29:25;99820.78;;;3.98;95.92
13068;BME280;6600;51.362;6.686;2024-01-15T04:31:52;99813.88;;;4.04;95.72
13068;BME280;6600;51.362;6.686;2024-01-15T04:34:18;99814.97;;;3.82;96.57
13068;BME280;6600;51.362;6.686;2024-01-15T04:36:43;99814.22;;;3.94;96.39
13068;BME280;6600;51.362;6.686;2024-01-15T04:39:08;99816.75;;;4.09;96.99
13068;BME280;6600;51.362;6.686;2024-01-15T04:41:34;99808.56;;;4.04;96.80
13068;BME280;6600;51.362;6.686;2024-01-15T04:43:59;99813.72;;;3.78;98.37
13068;BME280;6600;51.362;6.686;2024-01-15T04:46:26;99810.19;;;3.71;98.54
13068;BME280;6600;51.362;6.686;2024-01-15T04:48:51;99807.94;;;3.68;98.98
13068;BME280;6600;51.362;6.686;2024-01-15T04:51:17;99810.81;;;3.73;99.03
13068;BME280;6600;51.362;6.686;2024-01-15T04:53:42;99810.72;;;3.60;99.59
13068;BME280;6600;51.362;6.686;2024-01-15T04:56:07;99798.78;;;3.70;99.19
13068;BME280;6600;51.362;6.686;2024-01-15T04:58:33;99813.63;;;3.65;99.29
13068;BME280;6600;51.362;6.686;2024-01-15T05:00:58;99805.50;;;3.73;99.37
13068;BME280;6600;51.362;6.686;2024-01-15T05:03:23;99790.88;;;3.77;99.32
13068;BME280;6600;51.362;6.686;2024-01-15T05:05:49;99804.75;;;3.79;98.81
13068;BME280;6600;51.362;6.686;2024-01-15T05:08:14;99789.25;;;3.76;99.03
13068;BME280;6600;51.362;6.686;2024-01-15T05:10:39;99789.88;;;3.78;98.93
13068;BME280;6600;51.362;6.686;2024-01-15T05:13:05;99787.81;;;3.80;98.57
13068;BME280;6600;51.362;6.686;2024-01-15T05:15:30;99794.72;;;3.74;98.72
13068;BME280;6600;51.362;6.686;2024-01-15T05:17:55;99788.84;;;3.79;99.12
13068;BME280;6600;51.362;6.686;2024-01-15T05:20:21;99792.94;;;3.81;99.16
13068;BME280;6600;51.362;6.686;2024-01-15T05:22:46;99781.91;;;3.78;98.77
13068;BME280;6600;51.362;6.686;2024-01-15T05:25:12;99777.69;;;3.90;98.59
13068;BME280;6600;51.362;6.686;2024-01-15T05:27:37;99778.50;;;3.90;98.78
13068;BME280;6600;51.362;6.686;2024-01-15T05:30:03;99784.88;;;3.96;98.25
13068;BME280;6600;51.362;6.686;2024-01-15T05:32:29;99780.16;;;3.91;98.47
13068;BME280;6600;51.362;6.686;2024-01-15T05:34:54;99791.00;;;3.96;98.71
13068;BME280;6600;51.362;6.686;2024-01-15T05:37:19;99781.41;;;3.95;97.94
13068;BME280;6600;51.362;6.686;2024-01-15T05:39:45;99778.75;;;3.95;98.49
13068;BME280;6600;51.362;6.686;2024-01-15T05:42:10;99774.69;;;3.93;98.63
13068;BME280;6600;51.362;6.686;2024-01-15T05:44:35;99775.91;;;3.97;98.45
13068;BME280;6600;51.362;6.686;2024-01-15T05:47:01;99773.88;;;3.99;98.02
13068;BME280;6600;51.362;6.686;2024-01-15T05:49:26;99770.72;;;4.17;97.59
13068;BME280;6600;51.362;6.686;2024-01-15T05:51:52;99773.09;;;4.05;98.03
13068;BME280;6600;51.362;6.686;2024-01-15T05:54:18;99769.44;;;4.06;98.03
13068;BME280;6600;51.362;6.686;2024-01-15T05:56:43;99762.47;;;3.98;97.97
13068;BME280;6600;51.362;6.686;2024-01-15T05:59:09;99759.84;;;4.05;97.79
13068;BME280;6600;51.362;6.686;2024-01-15T06:01:34;99759.59;;;4.00;98.12
13068;BME280;6600;51.362;6.686;2024-01-15T06:03:59;99762.66;;;3.97;97.77
13068;BME280;6600;51.362;6.686;2024-01-15T06:06:25;99755.94;;;4.01;97.45
13068;BME280;6600;51.362;6.686;2024-01-15T06:08:50;99764.88;;;3.93;97.92
13068;BME280;6600;51.362;6.686;2024-01-15T06:11:15;99764.88;;;3.93;98.04
13068;BME280;6600;51.362;6.686;2024-01-15T06:13:40;99757.59;;;4.02;97.53
13068;BME280;6600;51.362;6.686;2024-01-15T06:16:15;99766.59;;;4.14;97.86
13068;BME280;6600;51.362;6.686;2024-01-15T06:18:41;99760.63;;;3.99;97.49
13068;BME280;6600;51.362;6.686;2024-01-15T06:21:07;99765.56;;;4.08;97.64
13068;BME280;6600;51.362;6.686;2024-01-15T06:23:32;99759.66;;;4.06;97.56
13068;BME280;6600;51.362;6.686;2024-01-15T06:25:57;99762.91;;;4.08;97.14
13068;BME280;6600;51.362;6.686;2024-01-15T06:28:23;99766.53;;;4.01;97.30
13068;BME280;6600;51.362;6.686;2024-01-15T06:30:48;99759.84;;;4.05;97.32
13068;BME280;6600;51.362;6.686;2024-01-15T06:33:13;99763.09;;;4.07;97.09
13068;BME280;6600;51.362;6.686;2024-01-15T06:35:39;99765.38;;;4.10;97.14
13068;BME280;6600;51.362;6.686;2024-01-15T06:38:04;99759.25;;;4.10;97.33
13068;BME280;6600;51.362;6.686;2024-01-15T06:40:29;99756.41;;;4.11;97.45
13068;BME280;6600;51.362;6.686;2024-01-15T06:42:54;99753.34;;;4.14;96.89
13068;BME280;6600;51.362;6.686;2024-01-15T06:45:20;99752.59;;;4.20;96.91
13068;BME280;6600;51.362;6.686;2024-01-15T06:47:45;99755.03;;;4.28;96.17
13068;BME280;6600;51.362;6.686;2024-01-15T06:50:10;99755.63;;;4.17;96.48
13068;BME280;6600;51.362;6.686;2024-01-15T06:52:36;99765.84;;;4.20;96.67
13068;BME280;6600;51.362;6.686;2024-01-15T06:55:01;99771.16;;;4.20;96.58
13068;BME280;6600;51.362;6.686;2024-01-15T06:57:27;99775.19;;;4.16;96.38
13068;BME280;6600;51.362;6.686;2024-01-15T06:59:52;99769.84;;;4.03;97.08
13068;BME280;6600;51.362;6.686;2024-01-15T07:02:17;99761.63;;;3.98;97.06
13068;BME280;6600;51.362;6.686;2024-01-15T07:04:42;99761.25;;;4.01;96.92
13068;BME280;6600;51.362;6.686;2024-01-15T07:07:08;99767.56;;;4.00;96.43
13068;BME280;6600;51.362;6.686;2024-01-15T07:09:33;99763.28;;;3.99;96.90
13068;BME280;6600;51.362;6.686;2024-01-15T07:11:58;99753.09;;;3.96;97.49
13068;BME280;6600;51.362;6.686;2024-01-15T07:14:24;99757.16;;;3.98;97.62
13068;BME280;6600;51.362;6.686;2024-01-15T07:16:50;99753.47;;;3.93;97.72
13068;BME280;6600;51.362;6.686;2024-01-15T07:19:15;99755.53;;;3.97;97.23
13068;BME280;6600;51.362;6.686;2024-01-15T07:21:40;99749.00;;;4.00;97.78
13068;BME280;6600;51.362;6.686;2024-01-15T07:24:08;99749.81;;;4.00;97.71
13068;BME280;6600;51.362;6.686;2024-01-15T07:26:33;99742.91;;;3.99;98.13
13068;BME280;6600;51.362;6.686;2024-01-15T07:28:58;99734.28;;;3.91;98.70
13068;BME280;6600;51.362;6.686;2024-01-15T07:31:24;99741.91;;;4.07;98.14
13068;BME280;6600;51.362;6.686;2024-01-15T07:33:49;99734.00;;;4.14;98.14
13068;BME280;6600;51.362;6.686;2024-01-15T07:36:14;99741.28;;;4.05;98.49
13068;BME280;6600;51.362;6.686;2024-01-15T07:38:40;99739.66;;;4.04;98.80
13068;BME280;6600;51.362;6.686;2024-01-15T07:41:05;99738.69;;;4.18;98.74
13068;BME280;6600;51.362;6.686;2024-01-15T07:43:30;99743.34;;;4.03;98.47
13068;BME280;6600;51.362;6.686;2024-01-15T07:45:55;99739.31;;;4.20;98.13
13068;BME280;6600;51.362;6.686;2024-01-15T07:48:21;99734.78;;;4.14;98.08
13068;BME280;6600;51.362;6.686;2024-01-15T07:50:46;99748.03;;;4.14;98.34
13068;BME280;6600;51.362;6.686;2024-01-15T07:53:11;99748.25;;;4.13;97.87
13068;BME280;6600;51.362;6.686;2024-01-15T07:55:37;99747.00;;;4.08;98.08
13068;BME280;6600;51.362;6.686;2024-01-15T07:58:02;99746.19;;;4.08;97.88
13068;BME280;6600;51.362;6.686;2024-01-15T08:00:28;99750.25;;;4.04;97.85
13068;BME280;6600;51.362;6.686;2024-01-15T08:02:53;99755.94;;;4.01;97.99
13068;BME280;6600;51.362;6.686;2024-01-15T08:05:18;99748.22;;;3.99;98.11
13068;BME280;6600;51.362;6.686;2024-01-15T08:07:44;99746.13;;;3.95;98.09
13068;BME280;6600;51.362;6.686;2024-01-15T08:10:09;99752.69;;;3.99;98.04
13068;BME280;6600;51.362;6.686;2024-01-15T08:12:35;99746.94;;;3.89;98.37
13068;BME280;6600;51.362;6.686;2024-01-15T08:15:00;99749.34;;;3.84;98.62
13068;BME280;6600;51.362;6.686;2024-01-15T08:17:25;99740.38;;;3.85;98.68
13068;BME280;6600;51.362;6.686;2024-01-15T08:19:54;99749.38;;;3.90;98.77
13068;BME280;6600;51.362;6.686;2024-01-15T08:22:19;99752.19;;;3.82;98.53
13068;BME280;6600;51.362;6.686;2024-01-15T08:24:45;99747.25;;;3.79;98.74
13068;BME280;6600;51.362;6.686;2024-01-15T08:27:10;99747.66;;;3.76;98.56
13068;BME280;6600;51.362;6.686;2024-01-15T08:29:36;99749.25;;;3.71;98.68
13068;BME280;6600;51.362;6.686;2024-01-15T08:32:01;99744.56;;;3.73;98.83
13068;BME280;6600;51.362;6.686;2024-01-15T08:34:27;99751.31;;;3.69;98.84
13068;BME280;6600;51.362;6.686;2024-01-15T08:36:52;99744.75;;;3.65;98.94
13068;BME280;6600;51.362;6.686;2024-01-15T08:39:17;99747.00;;;3.68;99.33
13068;BME280;6600;51.362;6.686;2024-01-15T08:41:44;99748.44;;;3.70;99.14
13068;BME280;6600;51.362;6.686;2024-01-15T08:44:09;99754.81;;;3.76;99.31
13068;BME280;6600;51.362;6.686;2024-01-15T08:46:35;99749.53;;;3.82;99.31
13068;BME280;6600;51.362;6.686;2024-01-15T08:49:00;99757.50;;;3.82;99.66
13068;BME280;6600;51.362;6.686;2024-01-15T08:51:25;99758.50;;;3.81;99.18
13068;BME280;6600;51.362;6.686;2024-01-15T08:53:51;99765.22;;;3.84;99.48
13068;BME280;6600;51.362;6.686;2024-01-15T08:56:17;99763.22;;;3.86;99.18
13068;BME280;6600;51.362;6.686;2024-01-15T08:58:42;99773.03;;;3.92;98.87
13068;BME280;6600;51.362;6.686;2024-01-15T09:01:07;99778.72;;;3.89;99.11
13068;BME280;6600;51.362;6.686;2024-01-15T09:03:33;99772.97;;;3.79;99.06
13068;BME280;6600;51.362;6.686;2024-01-15T09:05:59;99776.19;;;3.74;98.70
13068;BME280;6600;51.362;6.686;2024-01-15T09:08:24;99774.88;;;3.64;98.78
13068;BME280;6600;51.362;6.686;2024-01-15T09:10:50;99778.16;;;3.66;98.69
13068;BME280;6600;51.362;6.686;2024-01-15T09:13:15;99785.88;;;3.61;99.61
13068;BME280;6600;51.362;6.686;2024-01-15T09:15:42;99786.75;;;3.68;98.90
13068;BME280;6600;51.362;6.686;2024-01-15T09:18:07;99779.41;;;3.70;99.25
13068;BME280;6600;51.362;6.686;2024-01-15T09:20:33;99786.78;;;3.74;99.34
13068;BME280;6600;51.362;6.686;2024-01-15T09:22:58;99785.56;;;3.77;99.45
13068;BME280;6600;51.362;6.686;2024-01-15T09:25:23;99786.44;;;3.84;99.43
13068;BME280;6600;51.362;6.686;2024-01-15T09:27:49;99786.94;;;4.00;99.57
13068;BME280;6600;51.362;6.686;2024-01-15T09:30:14;99786.19;;;4.13;99.51
13068;BME280;6600;51.362;6.686;2024-01-15T09:32:40;99783.38;;;4.21;98.98
13068;BME280;6600;51.362;6.686;2024-01-15T09:35:06;99783.38;;;4.21;98.40
13068;BME280;6600;51.362;6.686;2024-01-15T09:37:31;99788.63;;;4.15;98.06
13068;BME280;6600;51.362;6.686;2024-01-15T09:39:56;99786.59;;;4.10;97.79
13068;BME280;6600;51.362;6.686;2024-01-15T09:42:24;99786.22;;;4.20;98.15
13068;BME280;6600;51.362;6.686;2024-01-15T09:44:50;99793.91;;;4.08;97.49
13068;BME280;6600;51.362;6.686;2024-01-15T09:47:17;99793.50;;;4.11;97.92
13068;BME280;6600;51.362;6.686;2024-01-15T09:49:43;99787.34;;;4.04;98.05
13068;BME280;6600;51.362;6.686;2024-01-15T09:52:10;99790.88;;;4.18;97.81
13068;BME280;6600;51.362;6.686;2024-01-15T09:54:36;99793.38;;;4.19;98.12
13068;BME280;6600;51.362;6.686;2024-01-15T09:57:01;99791.97;;;4.23;98.17
13068;BME280;6600;51.362;6.686;2024-01-15T09:59:28;99800.56;;;4.32;98.35
13068;BME280;6600;51.362;6.686;2024-01-15T10:01:54;99803.22;;;4.38;97.65
13068;BME280;6600;51.362;6.686;2024-01-15T10:04:20;99807.47;;;4.26;97.85
13068;BME280;6600;51.362;6.686;2024-01-15T10:06:46;99806.31;;;4.42;97.67
13068;BME280;6600;51.362;6.686;2024-01-15T10:09:13;99799.00;;;4.50;97.53
13068;BME280;6600;51.362;6.686;2024-01-15T10:11:41;99794.31;;;4.52;97.05
13068;BME280;6600;51.362;6.686;2024-01-15T10:14:08;99794.09;;;4.47;96.97
13068;BME280;6600;51.362;6.686;2024-01-15T10:16:33;99786.75;;;4.49;96.92
13068;BME280;6600;51.362;6.686;2024-01-15T10:18:59;99783.50;;;4.47;96.87
13068;BME280;6600;51.362;6.686;2024-01-15T10:21:24;99787.16;;;4.46;97.12
13068;BME280;6600;51.362;6.686;2024-01-15T10:23:51;99782.25;;;4.43;97.04
13068;BME280;6600;51.362;6.686;2024-01-15T10:26:17;99789.50;;;4.28;96.90
13068;BME280;6600;51.362;6.686;2024-01-15T10:28:42;99785.47;;;4.32;96.88
13068;BME280;6600;51.362;6.686;2024-01-15T10:31:08;99789.31;;;4.23;96.65
13068;BME280;6600;51.362;6.686;2024-01-15T10:33:33;99782.16;;;4.17;96.96
13068;BME280;6600;51.362;6.686;2024-01-15T10:36:00;99778.06;;;4.21;97.29
13068;BME280;6600;51.362;6.686;2024-01-15T10:38:26;99778.69;;;4.23;97.29
13068;BME280;6600;51.362;6.686;2024-01-15T10:40:52;99782.59;;;4.27;97.91
13068;BME280;6600;51.362;6.686;2024-01-15T10:43:18;99783.81;;;4.31;97.73
13068;BME280;6600;51.362;6.686;2024-01-15T10:45:48;99781.28;;;4.57;97.69
13068;BME280;6600;51.362;6.686;2024-01-15T10:48:16;99789.03;;;4.66;96.95
13068;BME280;6600;51.362;6.686;2024-01-15T10:50:43;99786.03;;;4.82;97.22
13068;BME280;6600;51.362;6.686;2024-01-15T10:53:09;99787.88;;;4.81;96.74
13068;BME280;6600;51.362;6.686;2024-01-15T10:55:37;99788.50;;;4.90;95.94
13068;BME280;6600;51.362;6.686;2024-01-15T10:58:03;99793.78;;;4.77;95.41
13068;BME280;6600;51.362;6.686;2024-01-15T11:00:29;99788.03;;;4.73;96.00
13068;BME280;6600;51.362;6.686;2024-01-15T11:02:55;99793.75;;;4.64;96.37
13068;BME280;6600;51.362;6.686;2024-01-15T11:05:22;99797.84;;;4.73;95.40
13068;BME280;6600;51.362;6.686;2024-01-15T11:07:50;99791.34;;;4.82;95.79
13068;BME280;6600;51.362;6.686;2024-01-15T11:10:41;99795.41;;;4.78;95.73
13068;BME280;6600;51.362;6.686;2024-01-15T11:13:19;99790.84;;;4.58;96.12
13068;BME280;6600;51.362;6.686;2024-01-15T11:16:01;99790.84;;;4.58;96.62
13068;BME280;6600;51.362;6.686;2024-01-15T11:18:32;99790.91;;;4.65;97.15
13068;BME280;6600;51.362;6.686;2024-01-15T11:23:50;99784.00;;;4.84;96.86
13068;BME280;6600;51.362;6.686;2024-01-15T11:29:08;99786.94;;;5.48;95.42
13068;BME280;6600;51.362;6.686;2024-01-15T11:34:07;99784.03;;;5.95;93.08
13068;BME280;6600;51.362;6.686;2024-01-15T11:42:03;99783.00;;;5.90;92.58
13068;BME280;6600;51.362;6.686;2024-01-15T11:44:29;99790.56;;;5.80;92.00
13068;BME280;6600;51.362;6.686;2024-01-15T11:46:59;99795.09;;;5.86;92.67
13068;BME280;6600;51.362;6.686;2024-01-15T11:50:01;99786.47;;;5.90;92.02
13068;BME280;6600;51.362;6.686;2024-01-15T11:52:37;99791.38;;;5.74;91.95
13068;BME280;6600;51.362;6.686;2024-01-15T11:55:22;99791.00;;;5.64;92.51
13068;BME280;6600;51.362;6.686;2024-01-15T11:57:53;99794.47;;;5.57;92.25
13068;BME280;6600;51.362;6.686;2024-01-15T12:00:20;99786.09;;;5.41;91.63
13068;BME280;6600;51.362;6.686;2024-01-15T12:02:47;99782.63;;;5.27;92.29
13068;BME280;6600;51.362;6.686;2024-01-15T12:05:17;99783.66;;;5.26;92.67
13068;BME280;6600;51.362;6.686;2024-01-15T12:07:44;99786.09;;;5.28;92.35
13068;BME280;6600;51.362;6.686;2024-01-15T12:12:57;99783.03;;;5.37;92.49
13068;BME280;6600;51.362;6.686;2024-01-15T12:15:23;99791.81;;;5.18;92.66
13068;BME280;6600;51.362;6.686;2024-01-15T12:17:49;99790.97;;;5.11;93.01
13068;BME280;6600;51.362;6.686;2024-01-15T12:20:15;99785.66;;;5.11;92.88
13068;BME280;6600;51.362;6.686;2024-01-15T12:22:41;99784.47;;;5.20;92.73
13068;BME280;6600;51.362;6.686;2024-01-15T12:25:07;99790.59;;;5.27;92.54
13068;BME280;6600;51.362;6.686;2024-01-15T12:27:32;99787.72;;;5.35;93.12
13068;BME280;6600;51.362;6.686;2024-01-15T12:29:58;99792.22;;;5.68;92.07
13068;BME280;6600;51.362;6.686;2024-01-15T12:32:24;99788.53;;;5.82;91.05
13068;BME280;6600;51.362;6.686;2024-01-15T12:34:50;99791.34;;;6.00;90.46
13068;BME280;6600;51.362;6.686;2024-01-15T12:37:18;99780.34;;;6.03;90.39
13068;BME280;6600;51.362;6.686;2024-01-15T12:39:43;99789.28;;;6.15;90.00
13068;BME280;6600;51.362;6.686;2024-01-15T12:42:09;99794.63;;;6.08;88.66
13068;BME280;6600;51.362;6.686;2024-01-15T12:44:35;99791.78;;;5.97;88.99
13068;BME280;6600;51.362;6.686;2024-01-15T12:47:03;99798.69;;;6.18;89.19
13068;BME280;6600;51.362;6.686;2024-01-15T12:49:29;99795.28;;;5.91;89.27
13068;BME280;6600;51.362;6.686;2024-01-15T12:51:57;99813.47;;;5.81;89.21
13068;BME280;6600;51.362;6.686;2024-01-15T12:54:23;99805.28;;;5.63;89.01
13068;BME280;6600;51.362;6.686;2024-01-15T12:56:49;99806.94;;;5.50;90.17
13068;BME280;6600;51.362;6.686;2024-01-15T12:59:14;99799.81;;;5.44;90.05
13068;BME280;6600;51.362;6.686;2024-01-15T13:01:40;99800.41;;;5.46;90.39
13068;BME280;6600;51.362;6.686;2024-01-15T13:04:07;99809.78;;;5.42;90.37
13068;BME280;6600;51.362;6.686;2024-01-15T13:06:34;99803.06;;;5.33;91.04
13068;BME280;6600;51.362;6.686;2024-01-15T13:08:59;99802.84;;;5.28;91.04
13068;BME280;6600;51.362;6.686;2024-01-15T13:11:24;99817.75;;;5.29;91.40
13068;BME280;6600;51.362;6.686;2024-01-15T13:13:50;99811.44;;;5.17;91.47
13068;BME280;6600;51.362;6.686;2024-01-15T13:16:16;99807.31;;;5.21;91.94
13068;BME280;6600;51.362;6.686;2024-01-15T13:18:41;99805.31;;;5.23;91.71
13068;BME280;6600;51.362;6.686;2024-01-15T13:21:06;99805.31;;;5.23;92.14
13068;BME280;6600;51.362;6.686;2024-01-15T13:23:32;99814.69;;;5.26;92.20
13068;BME280;6600;51.362;6.686;2024-01-15T13:25:57;99816.31;;;5.14;92.61
13068;BME280;6600;51.362;6.686;2024-01-15T13:28:23;99811.78;;;5.01;92.97
13068;BME280;6600;51.362;6.686;2024-01-15T13:30:48;99820.81;;;5.13;92.40
13068;BME280;6600;51.362;6.686;2024-01-15T13:33:14;99819.59;;;5.09;92.71